createdAt,value
2022-11-02T00:03:30.867Z,6.00
2022-11-02T00:07:32.569Z,3.90
2022-11-02T00:11:34.198Z,3.60
2022-11-02T00:15:37.136Z,3.37
2022-11-02T00:19:38.795Z,3.60
2022-11-02T00:23:42.029Z,4.30
2022-11-02T00:27:44.143Z,3.73
2022-11-02T00:31:45.856Z,3.77
2022-11-02T00:35:47.620Z,3.60
2022-11-02T00:39:49.393Z,4.23
2022-11-02T00:43:51.032Z,4.20
2022-11-02T00:47:52.805Z,3.97
2022-11-02T00:51:54.623Z,3.10
2022-11-02T00:55:56.373Z,3.40
2022-11-02T00:59:58.134Z,3.60
2022-11-02T01:03:59.804Z,3.63
2022-11-02T01:08:01.836Z,4.30
2022-11-02T01:12:04.864Z,4.10
2022-11-02T01:16:07.343Z,3.53
2022-11-02T01:20:09.783Z,5.00
2022-11-02T01:24:11.502Z,3.37
2022-11-02T01:28:13.160Z,3.37
2022-11-02T01:32:14.848Z,3.27
2022-11-02T01:40:24.479Z,2.77
2022-11-02T01:44:27.807Z,2.83
2022-11-02T01:48:36.597Z,2.73
2022-11-02T01:52:39.998Z,2.50
2022-11-02T01:56:44.807Z,2.70
2022-11-02T02:00:46.733Z,2.40
2022-11-02T02:04:52.499Z,2.33
2022-11-02T02:08:57.238Z,2.10
2022-11-02T02:12:58.960Z,2.10
2022-11-02T02:17:26.858Z,2.20
2022-11-02T02:21:42.691Z,2.20
2022-11-02T02:26:22.007Z,2.33
2022-11-02T02:30:23.855Z,2.30
2022-11-02T02:34:43.085Z,2.60
2022-11-02T02:39:28.432Z,1.83
2022-11-02T02:43:37.199Z,2.20
2022-11-02T02:47:46.435Z,2.17
2022-11-02T02:51:48.476Z,2.87
2022-11-02T02:55:51.772Z,3.57
2022-11-02T02:59:55.099Z,4.27
2022-11-02T03:03:56.785Z,5.43
2022-11-02T03:08:04.991Z,3.80
2022-11-02T03:12:21.647Z,4.63
2022-11-02T03:17:02.647Z,4.20
2022-11-02T03:21:30.075Z,4.70
2022-11-02T03:25:50.511Z,5.93
2022-11-02T03:29:56.464Z,6.53
2022-11-02T03:34:21.051Z,4.73
2022-11-02T03:38:28.973Z,5.70
2022-11-02T03:42:34.468Z,4.43
2022-11-02T03:46:39.660Z,3.73
2022-11-02T03:50:46.447Z,3.77
2022-11-02T03:55:06.639Z,2.90
2022-11-02T03:59:08.659Z,2.43
2022-11-02T04:03:11.800Z,2.80
2022-11-02T04:07:13.959Z,2.80
2022-11-02T04:11:34.812Z,2.60
2022-11-02T04:15:36.465Z,2.70
2022-11-02T04:19:38.107Z,2.70
2022-11-02T04:23:58.124Z,2.80
2022-11-02T04:28:07.486Z,2.30
2022-11-02T04:32:09.184Z,2.57
2022-11-02T04:36:11.004Z,2.47
2022-11-02T04:40:12.786Z,2.57
2022-11-02T04:44:15.858Z,2.90
2022-11-02T04:48:17.507Z,2.47
2022-11-02T04:52:19.161Z,2.30
2022-11-02T04:56:21.752Z,1.90
2022-11-02T05:00:23.563Z,1.80
2022-11-02T05:04:25.281Z,2.33
2022-11-02T05:08:27.368Z,2.23
2022-11-02T05:12:29.421Z,2.50
2022-11-02T05:16:31.193Z,2.93
2022-11-02T05:20:33.363Z,2.23
2022-11-02T05:24:35.045Z,2.40
2022-11-02T05:28:36.880Z,2.70
2022-11-02T05:32:38.603Z,2.67
2022-11-02T05:36:40.259Z,3.27
2022-11-02T05:40:41.999Z,2.77
2022-11-02T05:44:43.726Z,2.83
2022-11-02T05:48:45.448Z,3.03
2022-11-02T05:52:47.568Z,2.90
2022-11-02T05:56:49.275Z,2.87
2022-11-02T06:00:50.957Z,3.33
2022-11-02T06:04:52.825Z,3.00
2022-11-02T06:08:55.020Z,2.77
2022-11-02T06:13:01.992Z,2.80
2022-11-02T06:17:03.810Z,2.90
2022-11-02T06:21:06.278Z,5.77
2022-11-02T06:25:08.974Z,3.63
2022-11-02T06:29:10.744Z,3.33
2022-11-02T06:33:12.900Z,3.10
2022-11-02T06:37:14.887Z,4.93
2022-11-02T06:41:16.617Z,5.10
2022-11-02T06:45:18.325Z,3.57
2022-11-02T06:49:20.068Z,5.33
2022-11-02T06:53:21.770Z,5.60
2022-11-02T06:57:23.545Z,8.60
2022-11-02T07:01:25.305Z,4.20
2022-11-02T07:05:27.191Z,3.33
2022-11-02T07:09:29.219Z,3.13
2022-11-02T07:13:30.897Z,3.43
2022-11-02T07:17:32.588Z,3.00
2022-11-02T07:21:35.868Z,3.20
2022-11-02T07:25:37.875Z,2.90
2022-11-02T07:29:39.648Z,3.30
2022-11-02T07:33:41.527Z,3.63
2022-11-02T07:37:43.612Z,3.60
2022-11-02T07:41:50.801Z,4.47
2022-11-02T07:45:53.515Z,4.40
2022-11-02T07:49:55.184Z,4.03
2022-11-02T07:53:56.883Z,3.83
2022-11-02T07:58:03.910Z,3.50
2022-11-02T08:02:05.588Z,3.87
2022-11-02T08:06:07.732Z,4.23
2022-11-02T08:10:09.648Z,4.27
2022-11-02T08:14:11.259Z,4.20
2022-11-02T08:18:15.618Z,3.77
2022-11-02T08:22:17.274Z,6.97
2022-11-02T08:26:18.937Z,4.07
2022-11-02T08:30:20.708Z,6.30
2022-11-02T08:34:22.369Z,5.93
2022-11-02T08:38:24.079Z,5.10
2022-11-02T08:42:25.934Z,7.43
2022-11-02T08:46:27.605Z,8.00
2022-11-02T08:50:29.253Z,9.13
2022-11-02T08:54:30.971Z,7.10
2022-11-02T08:58:32.627Z,6.17
2022-11-02T09:02:34.477Z,6.30
2022-11-02T09:06:36.285Z,5.50
2022-11-02T09:10:38.639Z,5.33
2022-11-02T09:14:40.285Z,4.10
2022-11-02T09:18:42.086Z,2.60
2022-11-02T09:22:44.283Z,2.40
2022-11-02T09:26:46.235Z,2.55
2022-11-02T09:30:48.341Z,4.33
2022-11-02T09:34:50.532Z,1.80
2022-11-02T09:38:52.301Z,2.30
2022-11-02T09:43:01.506Z,1.60
2022-11-02T09:47:55.971Z,1.90
2022-11-02T09:51:51.514Z,1.83
2022-11-02T09:55:58.524Z,1.50
2022-11-02T10:00:01.852Z,1.35
2022-11-02T10:04:32.857Z,1.42
2022-11-02T10:08:34.548Z,1.73
2022-11-02T10:12:45.326Z,2.20
2022-11-02T10:16:59.064Z,1.63
2022-11-02T10:21:12.189Z,2.17
2022-11-02T10:25:16.864Z,1.67
2022-11-02T10:29:26.638Z,1.50
2022-11-02T10:33:30.203Z,1.65
2022-11-02T10:37:42.718Z,2.30
2022-11-02T10:41:53.219Z,1.75
2022-11-02T10:46:04.275Z,2.35
2022-11-02T10:50:24.665Z,2.22
2022-11-02T10:54:30.935Z,1.85
2022-11-02T10:58:38.709Z,2.22
2022-11-02T11:02:40.368Z,1.65
2022-11-02T11:06:43.487Z,1.40
2022-11-02T11:10:45.803Z,1.58
2022-11-02T11:19:39.210Z,1.65
2022-11-02T11:23:41.829Z,1.80
2022-11-02T11:27:47.870Z,2.15
2022-11-02T11:31:49.767Z,2.10
2022-11-02T11:35:52.107Z,2.40
2022-11-02T11:39:59.245Z,1.70
2022-11-02T11:44:02.613Z,1.50
2022-11-02T11:48:23.808Z,1.60
2022-11-02T11:52:32.000Z,1.33
2022-11-02T11:56:35.065Z,1.42
2022-11-02T12:00:36.819Z,1.65
2022-11-02T12:04:38.806Z,1.52
2022-11-02T12:09:04.073Z,1.20
2022-11-02T12:13:39.667Z,1.58
2022-11-02T12:17:46.561Z,1.67
2022-11-02T12:22:09.480Z,1.95
2022-11-02T12:26:29.745Z,1.67
2022-11-02T12:30:42.524Z,1.50
2022-11-02T12:35:23.222Z,1.40
2022-11-02T12:39:53.283Z,1.83
2022-11-02T12:44:20.920Z,2.10
2022-11-02T12:48:39.504Z,1.65
2022-11-02T12:53:05.664Z,1.65
2022-11-02T12:57:13.125Z,1.60
2022-11-02T13:01:19.685Z,2.05
2022-11-02T13:05:34.648Z,1.83
2022-11-02T13:10:14.724Z,2.40
2022-11-02T13:14:20.262Z,1.38
2022-11-02T13:18:28.904Z,1.70
2022-11-02T13:22:36.814Z,1.73
2022-11-02T13:26:42.907Z,1.90
2022-11-02T13:30:45.486Z,1.40
2022-11-02T13:34:49.444Z,1.52
2022-11-02T13:39:04.463Z,1.98
2022-11-02T13:43:40.468Z,1.10
2022-11-02T13:48:08.830Z,1.55
2022-11-02T13:52:15.231Z,1.63
2022-11-02T13:56:24.280Z,2.70
2022-11-02T14:00:43.730Z,2.35
2022-11-02T14:04:48.423Z,2.20
2022-11-02T14:09:09.164Z,2.75
2022-11-02T14:13:17.307Z,1.30
2022-11-02T14:17:19.248Z,2.85
2022-11-02T14:22:00.775Z,9.18
2022-11-02T14:26:02.521Z,1.85
2022-11-02T14:30:04.528Z,2.33
2022-11-02T14:34:15.140Z,2.33
2022-11-02T14:38:37.187Z,2.38
2022-11-02T14:42:53.224Z,1.75
2022-11-02T14:47:06.263Z,2.10
2022-11-02T14:51:16.535Z,1.80
2022-11-02T14:55:18.164Z,2.00
2022-11-02T14:59:27.513Z,1.60
2022-11-02T15:03:32.642Z,1.90
2022-11-02T15:07:40.137Z,2.03
2022-11-02T15:11:44.980Z,2.28
2022-11-02T15:15:55.989Z,2.10
2022-11-02T15:19:57.583Z,2.03
2022-11-02T15:24:16.773Z,2.20
2022-11-02T15:28:29.597Z,1.88
2022-11-02T15:32:37.896Z,4.40
2022-11-02T15:36:42.488Z,3.72
2022-11-02T15:40:51.046Z,3.40
2022-11-02T15:45:33.921Z,2.70
2022-11-02T15:50:08.260Z,2.58
2022-11-02T15:54:27.780Z,2.88
2022-11-02T15:58:43.886Z,3.13
2022-11-02T16:02:53.025Z,2.17
2022-11-02T16:06:55.623Z,2.43
2022-11-02T16:11:05.483Z,1.80
2022-11-02T16:15:18.306Z,7.53
2022-11-02T16:19:21.917Z,9.35
2022-11-02T16:23:26.695Z,7.20
2022-11-02T16:27:28.427Z,3.63
2022-11-02T16:31:33.355Z,3.20
2022-11-02T16:35:35.108Z,4.00
2022-11-02T16:39:39.646Z,5.87
2022-11-02T16:43:45.765Z,4.40
2022-11-02T16:47:47.744Z,4.77
2022-11-02T16:51:56.590Z,6.10
2022-11-02T16:56:13.446Z,8.87
2022-11-02T17:00:19.789Z,4.60
2022-11-02T17:04:23.063Z,8.13
2022-11-02T17:08:33.962Z,8.90
2022-11-02T17:12:40.207Z,6.50
2022-11-02T17:16:58.613Z,3.40
2022-11-02T17:21:12.688Z,12.70
2022-11-02T17:25:33.607Z,8.40
2022-11-02T17:29:39.784Z,3.80
2022-11-02T17:33:43.910Z,2.50
2022-11-02T17:37:45.624Z,7.87
2022-11-02T17:42:12.017Z,4.30
2022-11-02T17:46:13.663Z,2.43
2022-11-02T17:50:15.730Z,2.40
2022-11-02T17:54:18.400Z,3.97
2022-11-02T17:58:20.129Z,5.50
2022-11-02T18:02:21.974Z,6.47
2022-11-02T18:06:24.043Z,6.23
2022-11-02T18:10:30.290Z,10.37
2022-11-02T18:14:32.146Z,11.50
2022-11-02T18:18:33.800Z,9.00
2022-11-02T18:22:35.472Z,7.87
2022-11-02T18:26:38.017Z,8.60
2022-11-02T18:30:44.161Z,7.20
2022-11-02T18:34:45.885Z,6.23
2022-11-02T18:38:47.891Z,11.43
2022-11-02T18:42:50.310Z,9.43
2022-11-02T18:46:52.035Z,8.80
2022-11-02T18:50:53.727Z,8.50
2022-11-02T18:54:56.437Z,7.97
2022-11-02T18:58:58.191Z,6.80
2022-11-02T19:03:00.097Z,6.80
2022-11-02T19:07:20.542Z,7.10
2022-11-02T19:11:22.235Z,6.00
2022-11-02T19:15:23.907Z,14.00
2022-11-02T19:19:25.689Z,10.37
2022-11-02T19:23:27.710Z,5.07
2022-11-02T19:27:29.393Z,5.83
2022-11-02T19:31:31.195Z,7.00
2022-11-02T19:35:32.936Z,7.70
2022-11-02T19:39:34.893Z,9.77
2022-11-02T19:43:41.145Z,14.20
2022-11-02T19:47:44.082Z,12.13
2022-11-02T19:51:45.836Z,10.60
2022-11-02T19:55:54.055Z,14.93
2022-11-02T19:59:55.758Z,9.47
2022-11-02T20:03:59.584Z,6.33
2022-11-02T20:08:01.283Z,5.83
2022-11-02T20:12:04.765Z,5.73
2022-11-02T20:16:07.775Z,6.67
2022-11-02T20:20:09.699Z,5.77
2022-11-02T20:24:12.005Z,5.80
2022-11-02T20:28:14.383Z,5.90
2022-11-02T20:32:20.261Z,6.73
2022-11-02T20:36:21.985Z,5.87
2022-11-02T20:40:24.657Z,6.77
2022-11-02T20:44:26.414Z,4.60
2022-11-02T20:48:29.117Z,3.10
2022-11-02T20:52:30.797Z,4.17
2022-11-02T20:56:32.474Z,4.47
2022-11-02T21:00:34.192Z,4.23
2022-11-02T21:04:35.934Z,4.43
2022-11-02T21:08:39.124Z,6.83
2022-11-02T21:12:59.263Z,6.17
2022-11-02T21:17:02.751Z,6.07
2022-11-02T21:21:09.656Z,6.00
2022-11-02T21:25:11.624Z,6.50
2022-11-02T21:29:13.503Z,8.03
2022-11-02T21:33:15.202Z,7.40
2022-11-02T21:37:16.840Z,7.73
2022-11-02T21:41:21.244Z,6.73
2022-11-02T21:45:26.114Z,6.90
2022-11-02T21:49:29.053Z,5.63
2022-11-02T21:53:31.965Z,6.47
2022-11-02T21:57:33.839Z,5.83
2022-11-02T22:01:45.211Z,5.83
2022-11-02T22:05:56.582Z,5.73
2022-11-02T22:09:58.244Z,4.47
2022-11-02T22:14:01.136Z,4.60
2022-11-02T22:18:02.771Z,4.70
2022-11-02T22:22:04.845Z,4.37
2022-11-02T22:26:10.169Z,4.77
2022-11-02T22:30:12.365Z,4.60
2022-11-02T22:34:15.435Z,4.43
2022-11-02T22:38:35.701Z,4.40
2022-11-02T22:42:39.887Z,4.80
2022-11-02T22:46:46.255Z,8.30
2022-11-02T22:50:47.954Z,5.27
2022-11-02T22:54:49.626Z,5.10
2022-11-02T22:58:51.392Z,4.00
2022-11-02T23:02:53.045Z,4.00
2022-11-02T23:06:54.704Z,4.53
2022-11-02T23:11:16.719Z,3.97
2022-11-02T23:15:18.383Z,5.10
2022-11-02T23:19:31.031Z,5.37
2022-11-02T23:23:51.700Z,3.90
2022-11-02T23:28:12.126Z,3.17
2022-11-02T23:32:27.909Z,2.70
2022-11-02T23:36:29.536Z,3.00
2022-11-02T23:40:32.644Z,4.23
2022-11-02T23:44:34.315Z,4.63
2022-11-02T23:48:35.968Z,3.80
2022-11-02T23:52:56.077Z,3.60
2022-11-02T23:56:57.915Z,3.80
